Time;durP1;ratioP1;P1;durP2;ratioP2;P2;SDS_P1;SDS_P2;PMS_P1;PMS_P2;Temp;Humidity;BMP_temperature;BMP_pressure;BME280_temperature;BME280_humidity;BME280_pressure;Samples;Min_cycle;Max_cycle;Signal;HPM_P1;HPM_P2
2022/04/10 00:01:31;;;;;;;10.90;3.30;;;2.80;54.30;;;;;;5081166;28;46347;-66
2022/04/10 00:03:57;;;;;;;13.40;3.92;;;2.80;54.30;;;;;;5065422;28;46397;-65
2022/04/10 00:06:26;;;;;;;5.40;3.60;;;2.80;54.30;;;;;;5065192;28;46469;-65
2022/04/10 00:08:52;;;;;;;7.50;3.55;;;2.80;54.50;;;;;;5054567;28;46524;-64
2022/04/10 00:11:17;;;;;;;5.60;3.30;;;2.60;54.50;;;;;;5064012;28;47707;-64
2022/04/10 00:13:43;;;;;;;5.30;3.30;;;2.60;55.00;;;;;;5064705;28;46519;-64
2022/04/10 00:16:09;;;;;;;7.43;3.50;;;2.50;55.10;;;;;;5064507;28;46421;-65
2022/04/10 00:18:36;;;;;;;7.17;3.67;;;2.50;55.10;;;;;;5065921;28;46383;-65
2022/04/10 00:21:03;;;;;;;5.88;3.10;;;2.50;55.10;;;;;;5065310;28;48027;-64
2022/04/10 00:23:29;;;;;;;6.05;3.33;;;2.60;55.20;;;;;;5065883;28;46434;-65
2022/04/10 00:25:55;;;;;;;7.93;3.50;;;2.60;55.00;;;;;;5064333;28;46368;-64
2022/04/10 00:28:20;;;;;;;7.27;3.10;;;2.60;54.90;;;;;;5080288;28;46323;-63
2022/04/10 00:30:46;;;;;;;7.13;3.87;;;2.70;54.90;;;;;;5061821;28;47437;-63
2022/04/10 00:33:12;;;;;;;6.60;3.00;;;2.80;54.60;;;;;;5081886;28;46272;-64
2022/04/10 00:35:37;;;;;;;9.13;3.53;;;2.90;54.40;;;;;;5063765;28;46540;-65
2022/04/10 00:38:04;;;;;;;6.17;3.27;;;3.00;54.20;;;;;;5054763;28;46458;-63
2022/04/10 00:40:30;;;;;;;7.35;3.40;;;3.00;54.20;;;;;;5063714;28;48206;-63
2022/04/10 00:42:55;;;;;;;5.50;3.27;;;3.10;54.20;;;;;;5063750;28;46532;-64
2022/04/10 00:45:21;;;;;;;8.50;3.47;;;3.10;54.10;;;;;;5063291;28;46421;-63
2022/04/10 00:47:48;;;;;;;6.10;3.03;;;3.10;54.20;;;;;;5064943;28;45907;-65
2022/04/10 00:50:16;;;;;;;4.78;3.30;;;3.20;54.50;;;;;;5063810;28;47905;-64
2022/04/10 00:52:42;;;;;;;5.38;2.97;;;3.20;54.40;;;;;;5064573;28;46384;-64
2022/04/10 00:55:08;;;;;;;11.55;3.65;;;3.30;54.40;;;;;;5063209;28;46366;-65
2022/04/10 00:57:35;;;;;;;7.15;3.10;;;3.30;54.30;;;;;;5064243;28;46495;-64
2022/04/10 01:00:01;;;;;;;7.28;3.25;;;3.40;54.10;;;;;;5082060;28;46227;-64
2022/04/10 01:02:26;;;;;;;5.10;2.77;;;3.50;54.10;;;;;;5063668;28;46584;-65
2022/04/10 01:04:52;;;;;;;7.23;3.07;;;3.50;54.00;;;;;;5082143;28;45779;-65
2022/04/10 01:07:20;;;;;;;5.97;3.33;;;3.60;54.20;;;;;;5064025;28;46361;-66
2022/04/10 01:09:46;;;;;;;5.70;3.00;;;3.60;54.20;;;;;;5064162;28;48250;-65
2022/04/10 01:12:12;;;;;;;9.52;3.00;;;3.60;54.30;;;;;;5064262;28;46098;-65
2022/04/10 01:14:39;;;;;;;5.00;2.90;;;3.60;54.40;;;;;;5056814;28;46461;-65
2022/04/10 01:17:09;;;;;;;5.60;2.53;;;3.60;54.40;;;;;;5063552;28;46611;-65
2022/04/10 01:19:38;;;;;;;5.35;2.75;;;3.70;54.50;;;;;;5063571;28;48134;-65
2022/04/10 01:22:05;;;;;;;6.53;3.15;;;3.80;54.40;;;;;;5052814;28;46426;-63
2022/04/10 01:24:37;;;;;;;4.45;2.50;;;3.80;54.30;;;;;;5063667;28;46485;-64
2022/04/10 01:27:04;;;;;;;4.30;2.33;;;3.90;54.40;;;;;;5063596;28;46409;-64
2022/04/10 01:29:30;;;;;;;5.53;2.40;;;3.80;54.50;;;;;;5063839;28;48105;-64
2022/04/10 01:31:56;;;;;;;3.97;2.30;;;3.80;54.70;;;;;;5063400;28;46405;-64
2022/04/10 01:34:22;;;;;;;3.80;2.55;;;3.80;54.90;;;;;;5063866;28;46441;-65
2022/04/10 01:36:49;;;;;;;6.10;2.77;;;3.80;55.00;;;;;;5060942;28;46652;-63
2022/04/10 01:39:15;;;;;;;4.97;2.47;;;3.90;55.00;;;;;;5066809;28;48887;-64
2022/04/10 01:41:42;;;;;;;4.47;2.60;;;3.90;55.00;;;;;;5067658;28;46451;-63
2022/04/10 01:44:09;;;;;;;4.13;2.60;;;3.90;55.20;;;;;;5067535;28;46361;-63
2022/04/10 01:46:35;;;;;;;10.25;3.20;;;3.90;55.30;;;;;;5085447;28;45858;-63
2022/04/10 01:49:03;;;;;;;7.50;3.78;;;3.80;55.50;;;;;;5058049;28;47944;-65
2022/04/10 01:51:28;;;;;;;5.50;2.45;;;3.80;55.80;;;;;;5060376;28;46621;-63
2022/04/10 01:53:55;;;;;;;4.20;2.70;;;3.70;55.90;;;;;;5066101;28;46447;-64
2022/04/10 01:56:21;;;;;;;5.53;2.57;;;3.60;56.40;;;;;;5066975;28;46665;-64
2022/04/10 01:58:48;;;;;;;7.27;3.30;;;3.50;56.70;;;;;;5066750;28;47612;-64
2022/04/10 02:01:16;;;;;;;5.75;3.35;;;3.40;57.20;;;;;;5066332;28;46424;-65
2022/04/10 02:03:43;;;;;;;6.65;3.05;;;3.30;57.60;;;;;;5067258;28;46311;-65
2022/04/10 02:06:11;;;;;;;6.40;3.23;;;3.30;57.60;;;;;;5066736;28;46476;-65
2022/04/10 02:08:38;;;;;;;5.78;3.25;;;3.30;57.60;;;;;;5066701;28;47774;-64
2022/04/10 02:11:16;;;;;;;4.43;3.53;;;3.40;57.40;;;;;;5066508;28;46447;-66
2022/04/10 02:13:43;;;;;;;14.88;4.10;;;3.40;58.60;;;;;;5064610;28;46450;-65
2022/04/10 02:16:13;;;;;;;4.33;3.80;;;3.50;57.30;;;;;;5066749;28;45929;-67
2022/04/10 02:18:39;;;;;;;5.90;3.97;;;3.50;57.20;;;;;;5056347;28;47323;-65
2022/04/10 02:21:05;;;;;;;7.73;3.73;;;3.40;57.30;;;;;;5066850;28;46466;-65
2022/04/10 02:23:31;;;;;;;6.23;3.83;;;3.50;57.20;;;;;;5066768;28;46346;-65
2022/04/10 02:25:56;;;;;;;6.93;3.90;;;3.50;57.20;;;;;;5062200;28;46476;-66
2022/04/10 02:28:22;;;;;;;6.07;3.23;;;3.50;57.20;;;;;;5065768;28;47275;-64
2022/04/10 02:30:51;;;;;;;9.60;3.20;;;3.60;57.20;;;;;;5084922;28;46331;-64
2022/04/10 02:33:17;;;;;;;6.25;3.97;;;3.60;57.30;;;;;;5066555;28;46326;-65
2022/04/10 02:35:43;;;;;;;9.17;4.00;;;3.60;57.30;;;;;;5066371;28;46474;-64
2022/04/10 02:38:09;;;;;;;5.75;3.67;;;3.60;57.30;;;;;;5064985;28;47193;-64
2022/04/10 02:40:35;;;;;;;7.72;4.68;;;3.60;57.50;;;;;;5065796;28;46443;-65
2022/04/10 02:43:01;;;;;;;6.03;3.70;;;3.60;57.50;;;;;;5066729;28;46322;-65
2022/04/10 02:45:27;;;;;;;7.33;3.77;;;3.60;57.60;;;;;;5066144;28;46138;-63
2022/04/10 02:47:52;;;;;;;5.80;3.70;;;3.60;57.70;;;;;;5064612;28;46523;-64
2022/04/10 02:50:18;;;;;;;10.40;4.10;;;3.60;57.70;;;;;;5065585;28;46319;-64
2022/04/10 02:52:44;;;;;;;6.43;4.03;;;3.60;57.80;;;;;;5066126;28;46484;-64
2022/04/10 02:55:10;;;;;;;5.13;4.00;;;3.60;58.00;;;;;;5084510;28;46646;-64
2022/04/10 02:57:37;;;;;;;7.33;4.40;;;3.50;58.10;;;;;;5065974;28;48053;-64
2022/04/10 03:00:04;;;;;;;9.35;4.80;;;3.50;58.40;;;;;;5066523;28;46279;-63
2022/04/10 03:02:30;;;;;;;6.03;4.03;;;3.40;58.60;;;;;;5066288;28;46461;-64
2022/04/10 03:04:56;;;;;;;10.30;4.40;;;3.40;58.70;;;;;;5066330;28;45947;-64
2022/04/10 03:07:21;;;;;;;6.03;3.93;;;3.40;58.80;;;;;;5066273;28;46439;-65
2022/04/10 03:09:47;;;;;;;7.80;4.30;;;3.40;59.00;;;;;;5065959;28;46327;-65
2022/04/10 03:12:13;;;;;;;7.00;4.10;;;3.30;59.20;;;;;;5066458;28;46694;-65
2022/04/10 03:14:38;;;;;;;7.40;4.30;;;3.30;59.80;;;;;;5065722;28;46298;-63
2022/04/10 03:17:05;;;;;;;6.43;4.10;;;3.20;59.60;;;;;;5065769;28;48639;-63
2022/04/10 03:19:30;;;;;;;5.85;4.03;;;3.20;59.60;;;;;;5083841;28;46631;-64
2022/04/10 03:21:56;;;;;;;7.30;4.03;;;3.30;59.70;;;;;;5066015;28;46316;-65
2022/04/10 03:24:22;;;;;;;9.33;4.00;;;3.20;59.60;;;;;;5065982;28;46402;-64
2022/04/10 03:26:47;;;;;;;5.73;3.90;;;3.20;59.60;;;;;;5065034;28;48856;-65
2022/04/10 03:29:13;;;;;;;5.07;3.47;;;3.20;59.60;;;;;;5064973;28;46463;-64
2022/04/10 03:31:39;;;;;;;4.90;3.93;;;3.20;59.60;;;;;;5065920;28;46500;-64
2022/04/10 03:34:05;;;;;;;6.40;4.00;;;3.20;59.70;;;;;;5065836;28;46421;-65
2022/04/10 03:36:34;;;;;;;5.93;3.67;;;3.20;59.70;;;;;;5064932;28;48951;-64
2022/04/10 03:39:00;;;;;;;4.93;3.70;;;3.30;59.70;;;;;;5065108;28;45965;-64
2022/04/10 03:41:25;;;;;;;10.70;4.43;;;3.30;59.70;;;;;;5065606;28;46427;-64
2022/04/10 03:43:51;;;;;;;6.23;3.97;;;3.40;59.80;;;;;;5065490;28;46346;-65
2022/04/10 03:46:17;;;;;;;7.73;4.60;;;3.40;59.80;;;;;;5048134;28;46459;-64
2022/04/10 03:48:42;;;;;;;5.87;4.03;;;3.40;59.90;;;;;;5065124;28;46343;-64
2022/04/10 03:51:08;;;;;;;7.47;4.13;;;3.40;59.80;;;;;;5083949;28;46543;-64
2022/04/10 03:53:34;;;;;;;7.40;4.40;;;3.40;59.80;;;;;;5065472;28;46461;-64
2022/04/10 03:56:00;;;;;;;6.00;3.72;;;3.30;59.80;;;;;;5065086;28;48769;-65
2022/04/10 03:58:26;;;;;;;7.57;4.57;;;3.20;60.10;;;;;;5081669;28;46293;-64
2022/04/10 04:00:51;;;;;;;5.53;4.00;;;3.10;60.70;;;;;;5082782;27;46278;-65
2022/04/10 04:03:17;;;;;;;8.17;4.47;;;3.00;61.10;;;;;;5065832;28;46647;-65
2022/04/10 04:05:43;;;;;;;6.53;4.03;;;2.80;61.60;;;;;;5065063;28;48893;-65
2022/04/10 04:08:08;;;;;;;8.03;4.37;;;2.70;62.10;;;;;;5065159;28;46385;-64
2022/04/10 04:10:34;;;;;;;7.70;4.10;;;2.50;62.40;;;;;;5065168;28;46370;-64
2022/04/10 04:13:01;;;;;;;8.27;4.20;;;2.40;62.70;;;;;;5065435;28;46338;-65
2022/04/10 04:15:27;;;;;;;10.95;4.28;;;2.30;63.00;;;;;;5081545;28;48856;-65
2022/04/10 04:17:53;;;;;;;7.22;4.10;;;2.30;63.10;;;;;;5065389;28;46443;-65
2022/04/10 04:20:19;;;;;;;6.47;4.20;;;2.20;63.10;;;;;;5065760;28;46400;-64
2022/04/10 04:22:45;;;;;;;7.72;4.55;;;2.20;63.30;;;;;;5065081;28;46652;-65
2022/04/10 04:25:10;;;;;;;13.63;5.67;;;2.10;63.40;;;;;;5064639;28;47182;-65
2022/04/10 04:27:36;;;;;;;6.03;4.53;;;2.10;63.40;;;;;;5065055;28;46447;-64
2022/04/10 04:30:03;;;;;;;5.70;4.17;;;2.10;63.60;;;;;;5065078;28;46333;-64
2022/04/10 04:32:28;;;;;;;9.15;5.10;;;2.00;63.50;;;;;;5064067;28;46568;-64
2022/04/10 04:34:54;;;;;;;9.53;5.20;;;2.10;63.50;;;;;;5064828;28;46374;-64
2022/04/10 04:37:20;;;;;;;8.37;5.60;;;2.20;63.20;;;;;;5064267;28;46433;-64
2022/04/10 04:39:45;;;;;;;8.73;5.50;;;2.30;62.70;;;;;;5083054;28;45912;-64
2022/04/10 04:42:11;;;;;;;7.07;4.40;;;2.50;62.20;;;;;;5065151;28;46528;-65
2022/04/10 04:44:37;;;;;;;11.97;4.47;;;2.70;61.90;;;;;;5064523;28;46583;-64
2022/04/10 04:47:03;;;;;;;11.83;5.37;;;2.80;61.50;;;;;;5064616;28;46358;-63
2022/04/10 04:49:28;;;;;;;11.45;4.40;;;2.90;61.20;;;;;;5064153;28;46446;-64
2022/04/10 04:51:54;;;;;;;7.80;4.90;;;3.00;61.10;;;;;;5064816;28;45982;-65
2022/04/10 04:54:20;;;;;;;9.00;4.80;;;3.10;61.00;;;;;;5063441;28;47973;-66
2022/04/10 04:56:46;;;;;;;8.50;4.87;;;3.20;60.80;;;;;;5064395;28;46452;-64
2022/04/10 04:59:14;;;;;;;6.78;5.00;;;3.20;60.90;;;;;;5064361;28;46588;-65
2022/04/10 05:01:41;;;;;;;13.68;5.85;;;3.20;60.90;;;;;;5083135;28;46321;-64
2022/04/10 05:04:07;;;;;;;10.48;5.10;;;3.30;61.10;;;;;;5064266;28;47147;-66
2022/04/10 05:06:33;;;;;;;10.02;5.20;;;3.30;61.00;;;;;;5063605;28;46398;-65
2022/04/10 05:08:59;;;;;;;8.70;5.10;;;3.40;61.10;;;;;;5063682;28;45784;-65
2022/04/10 05:11:25;;;;;;;9.48;5.10;;;3.40;61.00;;;;;;5060306;28;46360;-64
2022/04/10 05:13:51;;;;;;;13.73;4.90;;;3.50;61.00;;;;;;5057930;28;47201;-65
2022/04/10 05:16:16;;;;;;;9.60;5.43;;;3.50;61.10;;;;;;5058911;28;46517;-64
2022/04/10 05:18:42;;;;;;;8.57;5.80;;;3.50;61.10;;;;;;5061938;28;46378;-63
2022/04/10 05:21:08;;;;;;;7.37;5.10;;;3.60;61.00;;;;;;5057772;28;46367;-63
2022/04/10 05:23:34;;;;;;;12.33;5.33;;;3.60;61.10;;;;;;5056810;28;48719;-65
2022/04/10 05:25:59;;;;;;;11.60;5.80;;;3.60;61.10;;;;;;5059392;28;46582;-63
2022/04/10 05:28:25;;;;;;;6.90;5.37;;;3.60;61.10;;;;;;5060521;28;46347;-64
2022/04/10 05:30:51;;;;;;;8.57;5.33;;;3.70;61.10;;;;;;5061336;28;46490;-64
2022/04/10 05:33:16;;;;;;;9.50;4.93;;;3.70;61.00;;;;;;5080577;28;46308;-66
2022/04/10 05:35:42;;;;;;;11.90;5.70;;;3.70;61.00;;;;;;5058835;28;46311;-65
2022/04/10 05:38:08;;;;;;;7.27;5.27;;;3.80;61.10;;;;;;5059493;28;46359;-64
2022/04/10 05:40:34;;;;;;;8.77;5.90;;;3.80;61.00;;;;;;5060398;28;46540;-64
2022/04/10 05:43:00;;;;;;;9.17;5.33;;;3.80;61.10;;;;;;5063014;28;47796;-63
2022/04/10 05:45:26;;;;;;;9.00;5.63;;;3.90;61.20;;;;;;5063815;28;46441;-62
2022/04/10 05:47:52;;;;;;;10.88;5.38;;;3.90;61.10;;;;;;5063826;28;46441;-64
2022/04/10 05:50:18;;;;;;;9.30;5.47;;;4.00;61.10;;;;;;5063509;28;46600;-64
2022/04/10 05:52:48;;;;;;;7.30;5.17;;;4.00;61.00;;;;;;5063454;28;46317;-65
2022/04/10 05:55:15;;;;;;;8.65;5.05;;;4.10;61.10;;;;;;5061046;28;46416;-64
2022/04/10 05:57:42;;;;;;;7.78;5.40;;;4.20;61.20;;;;;;5063634;28;46363;-65
2022/04/10 06:00:14;;;;;;;7.50;5.23;;;4.20;61.10;;;;;;5063865;28;45979;-65
2022/04/10 06:02:40;;;;;;;7.57;4.60;;;4.30;61.10;;;;;;5079735;28;48014;-64
2022/04/10 06:05:07;;;;;;;8.93;5.05;;;4.30;61.30;;;;;;5063091;28;46429;-65
2022/04/10 06:07:33;;;;;;;8.85;5.70;;;4.40;61.50;;;;;;5063907;28;46307;-64
2022/04/10 06:09:59;;;;;;;7.80;5.00;;;4.30;61.70;;;;;;5063382;28;46501;-65
2022/04/10 06:12:26;;;;;;;7.22;5.00;;;4.50;61.60;;;;;;5063141;28;46421;-64
2022/04/10 06:14:52;;;;;;;14.30;4.57;;;4.60;61.40;;;;;;5052949;28;46646;-64
2022/04/10 06:17:17;;;;;;;7.73;4.83;;;4.60;61.20;;;;;;5063266;28;46303;-64
2022/04/10 06:19:43;;;;;;;9.77;4.50;;;4.80;60.90;;;;;;5063865;28;46373;-64
2022/04/10 06:22:09;;;;;;;10.57;5.43;;;4.90;61.00;;;;;;5079194;28;46793;-64
2022/04/10 06:24:38;;;;;;;13.77;4.67;;;5.20;61.10;;;;;;5060003;28;46366;-64
2022/04/10 06:27:04;;;;;;;7.25;4.95;;;5.50;60.80;;;;;;5063046;28;45838;-64
2022/04/10 06:29:30;;;;;;;7.10;4.13;;;5.50;60.80;;;;;;5064447;28;46438;-64
2022/04/10 06:31:56;;;;;;;5.53;3.73;;;5.40;61.10;;;;;;5062205;28;46395;-64
2022/04/10 06:34:21;;;;;;;8.73;4.00;;;5.20;61.30;;;;;;5061006;28;46474;-64
2022/04/10 06:36:47;;;;;;;6.73;4.00;;;5.10;62.20;;;;;;5061972;28;46385;-64
2022/04/10 06:39:14;;;;;;;9.87;4.53;;;4.90;62.80;;;;;;5063751;28;46557;-63
2022/04/10 06:41:39;;;;;;;5.50;3.90;;;4.80;62.90;;;;;;5060988;28;48843;-63
2022/04/10 06:44:05;;;;;;;7.80;4.00;;;4.70;63.50;;;;;;5064675;28;46614;-64
2022/04/10 06:46:31;;;;;;;6.30;3.93;;;4.80;64.20;;;;;;5058246;28;46405;-64
2022/04/10 06:48:57;;;;;;;8.00;4.10;;;4.90;64.20;;;;;;5063752;28;46465;-64
2022/04/10 06:51:22;;;;;;;6.37;4.10;;;5.00;64.20;;;;;;5063741;28;48243;-64
2022/04/10 06:53:49;;;;;;;8.60;4.13;;;5.00;63.90;;;;;;5065900;28;46337;-64
2022/04/10 06:56:15;;;;;;;4.60;3.47;;;5.00;63.90;;;;;;5066121;28;46342;-63
2022/04/10 06:58:41;;;;;;;8.00;4.77;;;5.00;64.00;;;;;;5066701;28;46461;-64
2022/04/10 07:01:06;;;;;;;6.57;4.30;;;5.20;63.70;;;;;;5065607;28;47469;-63
2022/04/10 07:03:32;;;;;;;10.43;4.70;;;5.40;63.20;;;;;;5066094;28;46365;-63
2022/04/10 07:05:58;;;;;;;5.83;4.07;;;5.70;62.70;;;;;;5066151;28;46398;-64
2022/04/10 07:08:24;;;;;;;6.30;4.33;;;5.80;61.80;;;;;;5066186;28;46401;-63
2022/04/10 07:10:49;;;;;;;7.87;4.50;;;5.60;61.60;;;;;;5065969;28;46376;-64
2022/04/10 07:13:19;;;;;;;7.57;4.40;;;5.60;62.20;;;;;;5066223;28;46434;-63
2022/04/10 07:15:46;;;;;;;8.37;4.40;;;5.70;62.30;;;;;;5065081;28;46397;-64
2022/04/10 07:18:12;;;;;;;5.73;3.80;;;5.70;62.20;;;;;;5065336;28;46365;-64
2022/04/10 07:20:38;;;;;;;6.90;3.70;;;6.00;61.90;;;;;;5065891;28;48069;-63
2022/04/10 07:26:14;;;;;;;9.70;4.73;;;6.00;61.10;;;;;;4996223;28;46563;-64
2022/04/10 07:28:40;;;;;;;8.80;4.50;;;6.30;61.10;;;;;;5000204;28;46414;-64
2022/04/10 07:31:08;;;;;;;6.63;4.10;;;6.50;59.30;;;;;;5033411;28;46617;-64
2022/04/10 07:33:34;;;;;;;12.20;4.70;;;6.70;59.50;;;;;;5064401;28;46650;-65
2022/04/10 07:36:00;;;;;;;6.13;4.00;;;7.00;59.00;;;;;;5063183;28;47215;-64
2022/04/10 07:38:25;;;;;;;6.60;4.00;;;7.50;58.10;;;;;;5062907;28;46653;-64
2022/04/10 07:40:51;;;;;;;5.87;4.00;;;7.80;56.30;;;;;;5064334;28;47700;-64
2022/04/10 07:43:17;;;;;;;9.53;4.40;;;7.80;54.60;;;;;;5064872;28;46477;-65
2022/04/10 07:48:27;;;;;;;6.37;3.87;;;7.80;53.10;;;;;;5083381;28;46323;-64
2022/04/10 07:50:52;;;;;;;11.23;4.57;;;7.80;52.90;;;;;;5064807;28;47959;-64
2022/04/10 07:53:18;;;;;;;20.87;11.27;;;7.70;52.80;;;;;;5064417;28;46432;-64
2022/04/10 07:55:44;;;;;;;6.10;4.23;;;7.40;52.70;;;;;;5059421;28;46466;-65
2022/04/10 07:58:09;;;;;;;6.40;4.37;;;7.20;53.10;;;;;;5058982;28;46457;-65
2022/04/10 08:00:36;;;;;;;4.57;3.03;;;7.30;52.60;;;;;;5082863;28;47329;-64
2022/04/10 08:03:02;;;;;;;9.73;3.30;;;7.20;50.30;;;;;;5063149;28;46290;-63
2022/04/10 08:05:28;;;;;;;5.20;3.27;;;7.20;50.20;;;;;;5064729;28;45740;-64
2022/04/10 08:07:54;;;;;;;6.20;3.20;;;7.10;50.10;;;;;;5063724;28;46508;-63
2022/04/10 08:10:21;;;;;;;6.17;3.37;;;7.00;50.00;;;;;;5081075;28;47307;-63
2022/04/10 08:12:47;;;;;;;6.30;3.73;;;7.10;49.80;;;;;;5061554;28;46668;-64
2022/04/10 08:15:14;;;;;;;3.70;2.80;;;7.50;49.30;;;;;;5064149;28;46497;-63
2022/04/10 08:17:40;;;;;;;6.67;2.60;;;7.80;49.20;;;;;;5063232;28;46022;-63
2022/04/10 08:20:07;;;;;;;6.03;3.20;;;7.60;46.80;;;;;;5063685;28;46533;-65
2022/04/10 08:22:34;;;;;;;11.63;3.37;;;7.60;47.20;;;;;;5064729;28;46672;-64
2022/04/10 08:25:08;;;;;;;5.60;3.27;;;8.20;48.20;;;;;;5064923;28;46463;-64
2022/04/10 08:27:34;;;;;;;7.60;3.07;;;8.50;47.80;;;;;;5058317;28;46489;-63
2022/04/10 08:30:00;;;;;;;5.17;3.13;;;8.20;45.80;;;;;;5061877;28;46256;-63
2022/04/10 08:32:26;;;;;;;7.80;2.80;;;8.00;45.50;;;;;;5064255;28;46472;-66
2022/04/10 08:34:52;;;;;;;4.77;2.80;;;7.70;45.90;;;;;;5063028;28;46309;-64
2022/04/10 08:37:18;;;;;;;3.80;2.70;;;7.60;45.60;;;;;;5061761;28;46489;-64
2022/04/10 08:39:44;;;;;;;5.37;3.40;;;7.80;45.90;;;;;;5062607;28;47762;-64
2022/04/10 08:42:10;;;;;;;10.20;3.10;;;8.00;45.60;;;;;;5064251;28;46427;-64
2022/04/10 08:44:36;;;;;;;6.80;2.63;;;7.90;45.30;;;;;;5057785;28;45901;-64
2022/04/10 08:47:03;;;;;;;5.73;2.60;;;7.60;42.80;;;;;;5063583;28;45900;-63
2022/04/10 08:49:29;;;;;;;5.57;2.70;;;7.80;43.70;;;;;;5063494;28;48496;-63
2022/04/10 08:51:56;;;;;;;5.57;2.60;;;8.20;43.50;;;;;;5080623;28;46447;-64
2022/04/10 08:54:23;;;;;;;7.07;2.73;;;8.30;41.20;;;;;;5063657;28;46328;-64
2022/04/10 08:56:52;;;;;;;4.20;2.00;;;8.10;40.00;;;;;;5063575;28;46573;-63
2022/04/10 08:59:24;;;;;;;6.60;3.17;;;8.40;40.90;;;;;;5062585;28;47940;-64
2022/04/10 09:01:54;;;;;;;5.20;2.90;;;8.80;40.10;;;;;;5057395;28;46490;-64
2022/04/10 09:04:23;;;;;;;4.83;2.70;;;9.40;40.30;;;;;;5063491;28;46560;-65
2022/04/10 09:07:07;;;;;;;10.83;2.90;;;9.70;39.70;;;;;;5063499;28;46221;-65
2022/04/10 09:09:33;;;;;;;5.00;2.30;;;9.50;37.40;;;;;;5054616;28;48791;-63
2022/04/10 09:12:00;;;;;;;4.90;2.40;;;9.50;37.20;;;;;;5063690;28;46420;-64
2022/04/10 09:14:29;;;;;;;5.90;2.70;;;9.60;36.60;;;;;;5062572;28;46382;-63
2022/04/10 09:17:10;;;;;;;7.10;2.50;;;9.50;36.10;;;;;;5055161;28;46486;-64
2022/04/10 09:19:57;;;;;;;5.00;2.93;;;9.30;35.50;;;;;;5062969;28;47851;-64
2022/04/10 09:22:30;;;;;;;8.73;2.90;;;8.80;35.90;;;;;;5062274;28;46425;-63
2022/04/10 09:25:13;;;;;;;5.03;2.57;;;8.80;37.40;;;;;;5079819;28;46400;-64
2022/04/10 09:27:46;;;;;;;7.40;2.90;;;8.90;37.00;;;;;;5063622;28;46425;-64
2022/04/10 09:30:17;;;;;;;6.90;2.37;;;9.20;37.80;;;;;;5055216;28;47834;-64
2022/04/10 09:32:47;;;;;;;5.30;2.47;;;9.00;37.50;;;;;;5063990;28;45799;-64
2022/04/10 09:35:21;;;;;;;7.10;2.63;;;9.30;38.20;;;;;;5062792;28;46406;-64
2022/04/10 09:37:48;;;;;;;6.60;3.10;;;9.90;37.70;;;;;;5065089;28;46719;-64
2022/04/10 09:40:26;;;;;;;10.03;3.00;;;10.10;35.00;;;;;;5065555;28;48937;-65
2022/04/10 09:43:03;;;;;;;7.07;2.60;;;10.10;35.40;;;;;;5054592;28;46329;-64
2022/04/10 09:45:31;;;;;;;8.97;2.97;;;10.10;34.80;;;;;;5063253;28;46424;-63
2022/04/10 09:47:57;;;;;;;5.00;2.80;;;10.10;34.70;;;;;;5056890;28;46354;-64
2022/04/10 09:50:31;;;;;;;5.00;2.70;;;9.90;36.30;;;;;;5062390;28;46382;-64
2022/04/10 09:52:57;;;;;;;6.80;3.30;;;10.00;35.70;;;;;;5065058;28;46364;-64
2022/04/10 09:55:40;;;;;;;6.20;2.97;;;10.10;35.90;;;;;;5076721;28;46451;-64
2022/04/10 09:58:12;;;;;;;6.10;2.90;;;10.30;35.50;;;;;;5051508;27;46449;-64
2022/04/10 10:00:39;;;;;;;8.10;3.30;;;10.40;34.20;;;;;;5061088;28;46351;-64
2022/04/10 10:03:07;;;;;;;5.00;2.60;;;10.10;33.30;;;;;;5049598;28;46402;-64
2022/04/10 10:05:34;;;;;;;4.53;2.87;;;9.90;34.30;;;;;;5053998;28;46430;-64
2022/04/10 10:08:01;;;;;;;5.70;3.43;;;9.70;34.40;;;;;;5053937;28;46391;-64
2022/04/10 10:10:30;;;;;;;4.70;2.73;;;9.70;35.40;;;;;;5053458;28;47992;-64
2022/04/10 10:12:57;;;;;;;4.40;2.50;;;9.40;34.90;;;;;;5062031;28;46429;-65
2022/04/10 10:15:23;;;;;;;7.67;3.20;;;9.10;34.70;;;;;;5083759;28;46383;-64
2022/04/10 10:17:51;;;;;;;7.20;3.20;;;9.10;35.50;;;;;;5066506;28;46431;-65
2022/04/10 10:20:19;;;;;;;6.90;2.87;;;9.20;35.70;;;;;;5061953;28;46543;-65
2022/04/10 10:22:45;;;;;;;4.13;2.37;;;9.70;35.50;;;;;;5062770;28;46402;-65
2022/04/10 10:25:16;;;;;;;6.43;2.73;;;9.90;34.70;;;;;;5063329;28;46025;-66
2022/04/10 10:28:26;;;;;;;5.80;3.13;;;10.30;33.70;;;;;;5065706;28;46416;-65
2022/04/10 10:31:27;;;;;;;4.90;2.43;;;10.20;32.30;;;;;;5070886;28;46430;-66
2022/04/10 10:33:57;;;;;;;5.63;2.63;;;10.10;34.40;;;;;;5054960;28;46374;-65
2022/04/10 10:36:29;;;;;;;4.10;2.60;;;9.60;34.10;;;;;;5065425;28;46396;-62
2022/04/10 10:38:56;;;;;;;4.80;3.07;;;9.20;34.60;;;;;;5064015;28;46397;-64
2022/04/10 10:41:21;;;;;;;4.87;2.93;;;8.70;35.70;;;;;;5065966;28;47738;-65
2022/04/10 10:43:48;;;;;;;4.53;2.90;;;8.30;36.70;;;;;;5066438;28;46629;-64
2022/04/10 10:46:34;;;;;;;5.93;2.73;;;8.80;36.40;;;;;;5066303;28;45827;-64
2022/04/10 10:49:11;;;;;;;5.77;2.97;;;9.40;35.80;;;;;;5083294;28;46665;-64
2022/04/10 10:51:41;;;;;;;14.40;5.93;;;10.10;33.90;;;;;;5083210;28;46390;-64
2022/04/10 10:54:12;;;;;;;7.63;4.20;;;10.60;32.70;;;;;;5059622;28;46708;-64
2022/04/10 10:56:40;;;;;;;7.33;3.30;;;10.30;31.50;;;;;;5067164;28;46438;-64
2022/04/10 10:59:24;;;;;;;7.63;3.50;;;9.90;33.00;;;;;;5066638;28;46452;-64
2022/04/10 11:01:51;;;;;;;7.20;3.40;;;9.60;35.40;;;;;;5060788;28;48078;-64
2022/04/10 11:04:20;;;;;;;6.00;3.20;;;9.50;36.50;;;;;;5065208;28;46490;-65
2022/04/10 11:06:50;;;;;;;21.57;8.97;;;9.80;38.00;;;;;;5065180;28;46474;-62
2022/04/10 11:09:28;;;;;;;25.73;11.30;;;9.80;36.70;;;;;;5080140;28;46469;-65
2022/04/10 11:11:56;;;;;;;12.87;4.57;;;10.10;36.00;;;;;;5082031;28;46480;-64
2022/04/10 11:14:34;;;;;;;18.00;8.93;;;10.10;35.20;;;;;;5065434;28;46335;-64
2022/04/10 11:17:19;;;;;;;17.47;9.20;;;9.80;36.90;;;;;;5065031;28;46390;-65
2022/04/10 11:20:00;;;;;;;26.93;11.83;;;10.20;35.70;;;;;;5065849;28;46456;-66
2022/04/10 11:22:31;;;;;;;14.10;7.53;;;10.80;34.70;;;;;;5058006;28;48782;-64
2022/04/10 11:25:05;;;;;;;6.70;3.37;;;11.20;34.20;;;;;;5057406;28;46335;-65
2022/04/10 11:27:49;;;;;;;11.23;6.23;;;11.30;33.80;;;;;;5078076;28;46428;-65
2022/04/10 11:30:23;;;;;;;14.20;7.00;;;10.50;36.50;;;;;;5065543;28;45911;-64
2022/04/10 11:32:58;;;;;;;17.47;8.70;;;10.20;38.20;;;;;;5063609;28;46393;-64
2022/04/10 11:35:29;;;;;;;26.93;9.50;;;10.00;37.40;;;;;;5065094;28;46374;-65
2022/04/10 11:37:57;;;;;;;6.13;3.80;;;9.90;38.60;;;;;;5065433;28;46572;-65
2022/04/10 11:40:26;;;;;;;5.53;2.93;;;9.60;38.70;;;;;;5082727;28;46385;-64
2022/04/10 11:42:54;;;;;;;6.10;3.70;;;9.40;38.80;;;;;;5060539;28;47928;-64
2022/04/10 11:45:24;;;;;;;6.03;3.53;;;9.40;38.80;;;;;;5060720;28;46421;-65
2022/04/10 11:47:50;;;;;;;5.87;3.43;;;9.80;38.50;;;;;;5064962;28;46539;-65
2022/04/10 11:50:18;;;;;;;22.90;8.63;;;10.20;37.00;;;;;;5065493;28;46411;-65
2022/04/10 11:53:00;;;;;;;22.90;10.87;;;10.70;36.60;;;;;;5064867;28;48695;-65
2022/04/10 11:55:30;;;;;;;11.40;5.40;;;10.70;36.40;;;;;;5055638;28;46562;-64
2022/04/10 11:57:57;;;;;;;7.90;3.30;;;10.90;36.10;;;;;;5064095;28;46414;-64
2022/04/10 12:00:23;;;;;;;15.43;7.53;;;10.90;35.40;;;;;;5064783;28;46586;-65
2022/04/10 12:02:53;;;;;;;8.13;4.00;;;10.60;36.20;;;;;;5063495;28;48744;-63
2022/04/10 12:05:31;;;;;;;11.27;4.43;;;10.50;35.60;;;;;;5061119;28;46552;-64
2022/04/10 12:08:01;;;;;;;8.90;4.80;;;10.20;36.10;;;;;;5056087;28;46521;-63
2022/04/10 12:10:27;;;;;;;7.53;4.07;;;9.80;37.70;;;;;;5062592;28;46536;-65
2022/04/10 12:12:53;;;;;;;7.93;4.37;;;9.20;38.70;;;;;;5053596;28;46531;-65
2022/04/10 12:15:20;;;;;;;25.37;10.80;;;8.70;41.00;;;;;;5082052;28;46082;-65
2022/04/10 12:18:02;;;;;;;39.13;18.10;;;8.90;40.90;;;;;;5059219;28;46261;-65
2022/04/10 12:20:27;;;;;;;25.93;12.03;;;9.30;40.30;;;;;;5060565;28;46571;-64
2022/04/10 12:22:53;;;;;;;65.93;28.20;;;9.80;39.70;;;;;;5057612;28;47994;-63
2022/04/10 12:25:19;;;;;;;9.93;4.70;;;10.30;38.70;;;;;;5059673;28;46419;-65
2022/04/10 12:27:45;;;;;;;9.23;4.50;;;10.80;37.90;;;;;;5061822;28;46489;-66
2022/04/10 12:30:13;;;;;;;11.90;3.20;;;11.40;37.00;;;;;;5063203;28;46640;-65
2022/04/10 12:32:40;;;;;;;11.87;5.53;;;11.70;36.30;;;;;;5060748;28;47899;-64
2022/04/10 12:35:15;;;;;;;12.43;6.80;;;11.80;36.10;;;;;;5060287;28;45886;-65
2022/04/10 12:37:46;;;;;;;6.93;3.40;;;11.80;35.80;;;;;;5061633;28;45828;-65
2022/04/10 12:40:13;;;;;;;5.50;2.43;;;11.80;34.10;;;;;;5053888;28;46450;-65
2022/04/10 12:42:41;;;;;;;5.50;2.57;;;11.20;34.50;;;;;;5064247;28;46437;-65
2022/04/10 12:45:11;;;;;;;5.40;2.63;;;10.80;34.60;;;;;;5062724;28;46692;-66
2022/04/10 12:47:45;;;;;;;15.07;7.03;;;10.20;34.80;;;;;;5063958;28;46412;-65
2022/04/10 12:50:18;;;;;;;40.10;16.80;;;9.90;35.80;;;;;;5062353;28;46421;-65
2022/04/10 12:52:44;;;;;;;40.17;18.93;;;10.30;35.40;;;;;;5058108;28;48781;-65
2022/04/10 12:55:31;;;;;;;17.37;10.10;;;10.90;35.30;;;;;;5060575;28;46485;-65
2022/04/10 12:58:00;;;;;;;8.70;5.47;;;11.40;34.20;;;;;;5061665;28;46371;-66
2022/04/10 13:00:43;;;;;;;3.93;2.70;;;11.90;34.00;;;;;;5062712;28;46429;-66
2022/04/10 13:03:29;;;;;;;4.40;2.40;;;12.30;33.30;;;;;;5081774;28;46750;-65